createdAt,value
2023-04-10T00:00:58.090Z,3.29
2023-04-10T00:04:01.231Z,3.24
2023-04-10T00:07:03.986Z,3.29
2023-04-10T00:10:06.727Z,3.09
2023-04-10T00:13:09.138Z,3.01
2023-04-10T00:16:11.958Z,2.93
2023-04-10T00:19:14.504Z,2.98
2023-04-10T00:22:17.007Z,2.94
2023-04-10T00:25:19.611Z,2.89
2023-04-10T00:28:22.741Z,2.79
2023-04-10T00:31:25.156Z,2.86
2023-04-10T00:34:27.490Z,2.84
2023-04-10T00:37:30.016Z,2.77
2023-04-10T00:40:32.787Z,2.62
2023-04-10T00:43:35.193Z,2.52
2023-04-10T00:46:38.884Z,2.34
2023-04-10T00:49:42.222Z,2.29
2023-04-10T00:52:44.957Z,2.24
2023-04-10T00:55:47.483Z,2.13
2023-04-10T00:58:49.804Z,2.17
2023-04-10T01:01:52.354Z,2.25
2023-04-10T01:04:55.212Z,2.17
2023-04-10T01:08:13.833Z,2.18
2023-04-10T01:11:25.219Z,2.22
2023-04-10T01:14:35.313Z,2.14
2023-04-10T01:17:51.663Z,2.19
2023-04-10T01:20:54.552Z,2.20
2023-04-10T01:24:18.417Z,2.15
2023-04-10T01:27:35.900Z,2.10
2023-04-10T01:30:38.656Z,2.02
2023-04-10T01:34:17.000Z,2.05
2023-04-10T01:37:28.857Z,2.16
2023-04-10T01:40:32.501Z,2.20
2023-04-10T01:43:36.179Z,2.33
2023-04-10T01:46:38.976Z,2.26
2023-04-10T01:49:44.733Z,2.26
2023-04-10T01:52:48.225Z,2.16
2023-04-10T01:55:57.124Z,2.13
2023-04-10T01:59:00.153Z,2.10
2023-04-10T02:02:02.792Z,2.02
2023-04-10T02:05:05.907Z,1.89
2023-04-10T02:08:25.944Z,1.83
2023-04-10T02:11:40.365Z,1.73
2023-04-10T02:14:46.054Z,1.66
2023-04-10T02:17:48.710Z,1.52
2023-04-10T02:20:52.923Z,1.41
2023-04-10T02:23:57.998Z,1.40
2023-04-10T02:27:01.694Z,1.43
2023-04-10T02:30:05.201Z,1.40
2023-04-10T02:33:09.914Z,1.28
2023-04-10T02:36:12.990Z,1.24
2023-04-10T02:39:15.629Z,1.17
2023-04-10T02:42:24.220Z,1.25
2023-04-10T02:45:28.458Z,1.32
2023-04-10T02:48:31.535Z,1.38
2023-04-10T02:51:37.516Z,1.41
2023-04-10T02:54:40.718Z,1.36
2023-04-10T02:57:43.313Z,1.34
2023-04-10T03:00:50.888Z,1.28
2023-04-10T03:04:04.175Z,1.25
2023-04-10T03:07:12.321Z,1.28
2023-04-10T03:10:15.197Z,1.26
2023-04-10T03:13:17.740Z,1.22
2023-04-10T03:16:20.203Z,1.16
2023-04-10T03:19:23.221Z,1.19
2023-04-10T03:22:25.631Z,1.12
2023-04-10T03:25:28.540Z,1.05
2023-04-10T03:28:33.043Z,1.14
2023-04-10T03:31:35.521Z,1.28
2023-04-10T03:34:37.887Z,1.38
2023-04-10T03:37:40.357Z,1.44
2023-04-10T03:40:42.796Z,1.39
2023-04-10T03:43:46.475Z,1.35
2023-04-10T03:46:49.075Z,1.31
2023-04-10T03:49:52.449Z,1.40
2023-04-10T03:52:55.068Z,1.72
2023-04-10T03:55:58.813Z,1.95
2023-04-10T03:59:01.189Z,1.82
2023-04-10T04:02:03.617Z,1.80
2023-04-10T04:05:07.691Z,1.81
2023-04-10T04:08:24.001Z,1.96
2023-04-10T04:11:46.470Z,2.25
2023-04-10T04:15:03.981Z,2.23
2023-04-10T04:18:42.032Z,2.33
2023-04-10T04:21:55.831Z,2.44
2023-04-10T04:25:15.998Z,2.46
2023-04-10T04:28:24.569Z,2.25
2023-04-10T04:31:56.294Z,2.28
2023-04-10T04:35:37.276Z,2.22
2023-04-10T04:38:59.514Z,2.43
2023-04-10T04:42:07.812Z,2.34
2023-04-10T04:45:23.326Z,2.42
2023-04-10T04:48:45.410Z,2.54
2023-04-10T04:52:06.601Z,2.59
2023-04-10T04:55:21.983Z,2.62
2023-04-10T04:58:53.884Z,2.82
2023-04-10T05:02:15.019Z,2.89
2023-04-10T05:05:41.747Z,2.91
2023-04-10T05:08:53.758Z,2.90
2023-04-10T05:12:06.254Z,3.17
2023-04-10T05:15:27.274Z,3.09
2023-04-10T05:18:50.128Z,3.37
2023-04-10T05:22:16.910Z,3.13
2023-04-10T05:25:29.109Z,3.20
2023-04-10T05:28:53.170Z,3.47
2023-04-10T05:32:20.978Z,3.63
2023-04-10T05:35:36.828Z,3.69
2023-04-10T05:38:59.570Z,3.85
2023-04-10T05:42:10.725Z,4.09
2023-04-10T05:45:30.309Z,4.40
2023-04-10T05:48:51.949Z,4.32
2023-04-10T05:52:21.480Z,4.46
2023-04-10T05:55:42.605Z,4.55
2023-04-10T05:59:11.428Z,4.44
2023-04-10T06:02:37.052Z,4.61
2023-04-10T06:05:42.621Z,4.77
2023-04-10T06:08:44.914Z,4.71
2023-04-10T06:11:47.335Z,4.82
2023-04-10T06:14:54.227Z,5.00
2023-04-10T06:17:58.134Z,5.32
2023-04-10T06:21:02.235Z,5.78
2023-04-10T06:24:04.777Z,5.52
2023-04-10T06:27:07.285Z,5.28
2023-04-10T06:30:11.362Z,5.69
2023-04-10T06:33:13.731Z,5.85
2023-04-10T06:36:19.425Z,6.40
2023-04-10T06:39:33.101Z,6.99
2023-04-10T06:42:36.253Z,7.08
2023-04-10T06:45:50.055Z,7.26
2023-04-10T06:48:53.072Z,6.92
2023-04-10T06:51:55.985Z,6.92
2023-04-10T06:54:58.447Z,6.89
2023-04-10T06:58:00.946Z,6.72
2023-04-10T07:01:06.329Z,6.72
2023-04-10T07:04:08.944Z,6.67
2023-04-10T07:07:13.477Z,7.13
2023-04-10T07:10:15.816Z,6.98
2023-04-10T07:13:18.249Z,7.24
2023-04-10T07:16:20.982Z,7.43
2023-04-10T07:19:23.368Z,7.46
2023-04-10T07:22:26.581Z,7.47
2023-04-10T07:25:28.933Z,7.59
2023-04-10T07:28:33.488Z,7.56
2023-04-10T07:31:36.109Z,7.82
2023-04-10T07:34:38.641Z,8.05
2023-04-10T07:37:43.830Z,8.09
2023-04-10T07:40:46.213Z,8.21
2023-04-10T07:43:48.786Z,8.26
2023-04-10T07:46:52.612Z,8.26
2023-04-10T07:49:55.089Z,8.27
2023-04-10T07:52:57.604Z,8.49
2023-04-10T07:56:00.130Z,8.72
2023-04-10T07:59:03.491Z,8.76
2023-04-10T08:02:06.087Z,8.97
2023-04-10T08:05:08.951Z,9.03
2023-04-10T08:08:11.541Z,9.09
2023-04-10T08:11:26.388Z,9.22
2023-04-10T08:14:28.874Z,9.51
2023-04-10T08:17:31.697Z,9.55
2023-04-10T08:20:37.142Z,9.70
2023-04-10T08:23:39.578Z,9.55
2023-04-10T08:26:41.994Z,9.71
2023-04-10T08:29:44.671Z,9.85
2023-04-10T08:32:47.080Z,9.94
2023-04-10T08:35:49.536Z,10.06
2023-04-10T08:38:51.911Z,10.08
2023-04-10T08:41:55.490Z,10.19
2023-04-10T08:44:58.008Z,10.28
2023-04-10T08:48:03.717Z,10.34
2023-04-10T08:51:12.811Z,10.48
2023-04-10T08:54:26.244Z,10.63
2023-04-10T08:57:29.360Z,10.75
2023-04-10T09:00:34.817Z,10.93
2023-04-10T09:03:38.467Z,10.99
2023-04-10T09:06:41.224Z,11.05
2023-04-10T09:09:44.327Z,10.96
2023-04-10T09:12:48.279Z,11.01
2023-04-10T09:15:58.698Z,11.14
2023-04-10T09:19:05.052Z,11.30
2023-04-10T09:22:08.362Z,11.40
2023-04-10T09:25:30.664Z,11.45
2023-04-10T09:28:35.282Z,11.56
2023-04-10T09:31:38.996Z,11.74
2023-04-10T09:34:58.804Z,11.77
2023-04-10T09:38:01.279Z,11.89
2023-04-10T09:41:10.009Z,11.77
2023-04-10T09:44:12.433Z,11.98
2023-04-10T09:47:14.747Z,12.05
2023-04-10T09:50:17.595Z,12.29
2023-04-10T09:53:22.019Z,12.21
2023-04-10T09:56:27.969Z,12.45
2023-04-10T09:59:30.629Z,12.52
2023-04-10T10:02:37.482Z,12.32
2023-04-10T10:05:49.250Z,12.58
2023-04-10T10:08:51.792Z,12.88
2023-04-10T10:11:55.782Z,12.90
2023-04-10T10:15:02.639Z,13.09
2023-04-10T10:18:09.019Z,13.31
2023-04-10T10:21:11.585Z,13.31
2023-04-10T10:24:14.680Z,13.29
2023-04-10T10:27:18.674Z,13.54
2023-04-10T10:33:28.501Z,13.73
2023-04-10T10:36:32.332Z,13.64
2023-04-10T10:39:43.363Z,13.58
2023-04-10T10:42:58.683Z,13.76
2023-04-10T10:46:07.315Z,13.91
2023-04-10T10:49:09.777Z,13.83
2023-04-10T10:52:12.538Z,14.04
2023-04-10T10:58:59.038Z,14.05
2023-04-10T11:02:17.837Z,13.91
2023-04-10T11:05:55.443Z,14.26
2023-04-10T11:08:57.915Z,14.39
2023-04-10T11:12:00.655Z,14.45
2023-04-10T11:15:07.032Z,14.09
2023-04-10T11:18:09.527Z,14.43
2023-04-10T11:21:17.995Z,14.49
2023-04-10T11:24:20.893Z,14.28
2023-04-10T11:27:42.170Z,14.72
2023-04-10T11:30:45.584Z,14.39
2023-04-10T11:34:02.246Z,14.41
2023-04-10T11:37:04.569Z,14.46
2023-04-10T11:40:07.471Z,15.02
2023-04-10T11:43:15.869Z,14.78
2023-04-10T11:46:18.510Z,15.22
2023-04-10T11:49:38.948Z,15.28
2023-04-10T11:52:41.242Z,15.50
2023-04-10T11:55:43.687Z,15.60
2023-04-10T11:58:46.060Z,15.57
2023-04-10T12:01:48.600Z,15.45
2023-04-10T12:04:58.785Z,15.04
2023-04-10T12:08:02.258Z,15.42
2023-04-10T12:11:04.708Z,15.44
2023-04-10T12:14:07.012Z,15.86
2023-04-10T12:17:11.878Z,15.88
2023-04-10T12:20:16.769Z,15.81
2023-04-10T12:23:19.206Z,15.37
2023-04-10T12:26:21.671Z,15.69
2023-04-10T12:29:30.018Z,15.79
2023-04-10T12:32:32.536Z,15.47
2023-04-10T12:35:42.969Z,15.63
2023-04-10T12:38:46.065Z,15.80
2023-04-10T12:41:48.483Z,15.98
2023-04-10T12:45:01.252Z,16.23
2023-04-10T12:48:03.745Z,16.12
2023-04-10T12:51:06.433Z,15.85
2023-04-10T12:54:09.025Z,15.74
2023-04-10T12:57:27.361Z,16.44
2023-04-10T13:00:29.677Z,16.13
2023-04-10T13:03:34.146Z,16.21
2023-04-10T13:06:44.221Z,16.44
2023-04-10T13:09:46.731Z,16.55
2023-04-10T13:12:49.040Z,16.78
2023-04-10T13:15:51.445Z,16.96
2023-04-10T13:18:54.018Z,16.96
2023-04-10T13:21:56.641Z,17.27
2023-04-10T13:24:59.572Z,17.06
2023-04-10T13:28:02.350Z,17.27
2023-04-10T13:31:04.758Z,17.01
2023-04-10T13:34:07.524Z,17.30
2023-04-10T13:37:13.345Z,17.42
2023-04-10T13:40:15.823Z,17.00
2023-04-10T13:43:19.474Z,17.22
2023-04-10T13:46:22.059Z,17.31
2023-04-10T13:49:25.129Z,17.08
2023-04-10T13:52:27.480Z,17.27
2023-04-10T13:55:29.860Z,17.72
2023-04-10T13:58:34.348Z,17.66
2023-04-10T14:01:37.224Z,17.64
2023-04-10T14:04:39.795Z,17.28
2023-04-10T14:07:42.146Z,17.24
2023-04-10T14:10:44.607Z,17.63
2023-04-10T14:13:47.062Z,17.78
2023-04-10T14:16:49.495Z,17.64
2023-04-10T14:19:54.802Z,17.66
2023-04-10T14:22:57.288Z,17.60
2023-04-10T14:25:59.807Z,17.52
2023-04-10T14:29:02.634Z,17.71
2023-04-10T14:32:05.417Z,17.59
2023-04-10T14:35:08.530Z,17.58
2023-04-10T14:38:11.122Z,17.98
2023-04-10T14:41:13.464Z,17.85
2023-04-10T14:44:15.897Z,17.61
2023-04-10T14:47:18.347Z,17.41
2023-04-10T14:50:21.001Z,17.43
2023-04-10T14:53:23.371Z,17.21
2023-04-10T14:56:25.823Z,17.00
2023-04-10T14:59:28.410Z,17.28
2023-04-10T15:02:31.439Z,17.35
2023-04-10T15:05:34.205Z,17.67
2023-04-10T15:08:36.813Z,17.61
2023-04-10T15:11:39.135Z,17.54
2023-04-10T15:14:41.527Z,17.30
2023-04-10T15:17:44.375Z,17.11
2023-04-10T15:20:46.891Z,16.96
2023-04-10T15:23:49.357Z,16.73
2023-04-10T15:26:53.590Z,16.78
2023-04-10T15:29:56.016Z,16.76
2023-04-10T15:32:58.527Z,16.47
2023-04-10T15:36:00.991Z,16.44
2023-04-10T15:39:04.162Z,16.50
2023-04-10T15:42:08.403Z,16.27
2023-04-10T15:45:10.848Z,16.30
2023-04-10T15:48:13.679Z,16.14
2023-04-10T15:51:16.299Z,15.97
2023-04-10T15:54:18.574Z,15.99
2023-04-10T15:57:21.007Z,15.93
2023-04-10T16:00:23.730Z,16.14
2023-04-10T16:03:29.500Z,15.92
2023-04-10T16:06:33.593Z,15.67
2023-04-10T16:09:36.184Z,15.77
2023-04-10T16:12:38.949Z,15.50
2023-04-10T16:15:41.437Z,15.62
2023-04-10T16:18:45.071Z,15.51
2023-04-10T16:21:47.573Z,15.46
2023-04-10T16:24:50.538Z,15.20
2023-04-10T16:27:52.878Z,15.12
2023-04-10T16:30:56.977Z,15.37
2023-04-10T16:33:59.398Z,15.44
2023-04-10T16:37:01.922Z,15.26
2023-04-10T16:40:05.703Z,15.16
2023-04-10T16:43:08.350Z,14.96
2023-04-10T16:46:10.861Z,15.03
2023-04-10T16:49:13.549Z,14.81
2023-04-10T16:52:15.951Z,14.63
2023-04-10T16:55:18.710Z,14.65
2023-04-10T16:58:20.982Z,14.43
2023-04-10T17:01:27.513Z,14.22
2023-04-10T17:04:29.966Z,14.10
2023-04-10T17:07:32.535Z,14.02
2023-04-10T17:10:34.964Z,13.74
2023-04-10T17:13:37.307Z,13.69
2023-04-10T17:16:40.774Z,13.34
2023-04-10T17:19:43.287Z,13.21
2023-04-10T17:22:47.028Z,13.08
2023-04-10T17:25:49.450Z,12.81
2023-04-10T17:28:52.561Z,12.57
2023-04-10T17:31:55.375Z,12.25
2023-04-10T17:34:57.632Z,12.05
2023-04-10T17:37:59.994Z,11.95
2023-04-10T17:41:02.423Z,11.78
2023-04-10T17:44:05.675Z,11.60
2023-04-10T17:47:08.063Z,11.41
2023-04-10T17:50:10.778Z,11.30
2023-04-10T17:53:13.147Z,11.22
2023-04-10T17:56:19.831Z,11.14
2023-04-10T17:59:22.208Z,10.95
2023-04-10T18:02:24.731Z,10.79
2023-04-10T18:05:38.414Z,10.68
2023-04-10T18:08:40.870Z,10.57
2023-04-10T18:11:44.666Z,10.38
2023-04-10T18:14:48.256Z,10.29
2023-04-10T18:17:50.700Z,10.18
2023-04-10T18:20:53.096Z,10.09
2023-04-10T18:23:55.515Z,10.00
2023-04-10T18:26:57.906Z,9.89
2023-04-10T18:30:00.250Z,9.88
2023-04-10T18:33:05.075Z,9.75
2023-04-10T18:36:08.606Z,9.47
2023-04-10T18:39:11.147Z,9.66
2023-04-10T18:42:13.739Z,9.52
2023-04-10T18:45:16.225Z,9.39
2023-04-10T18:48:18.648Z,9.30
2023-04-10T18:51:21.436Z,9.24
2023-04-10T18:54:23.808Z,9.15
2023-04-10T18:57:26.323Z,9.00
2023-04-10T19:00:28.655Z,9.00
2023-04-10T19:03:31.241Z,8.94
2023-04-10T19:06:35.223Z,8.93
2023-04-10T19:09:37.624Z,8.88
2023-04-10T19:12:40.440Z,8.64
2023-04-10T19:15:44.447Z,8.67
2023-04-10T19:18:50.228Z,8.59
2023-04-10T19:21:52.530Z,8.58
2023-04-10T19:24:54.839Z,8.44
2023-04-10T19:27:57.210Z,8.38
2023-04-10T19:30:59.545Z,8.44
2023-04-10T19:34:04.586Z,8.39
2023-04-10T19:37:07.465Z,8.36
2023-04-10T19:40:10.306Z,8.25
2023-04-10T19:43:12.757Z,8.33
2023-04-10T19:46:21.760Z,8.25
2023-04-10T19:49:24.102Z,8.15
2023-04-10T19:52:26.726Z,8.14
2023-04-10T19:55:29.080Z,8.09
2023-04-10T20:01:38.299Z,8.26
2023-04-10T20:04:40.909Z,8.36
2023-04-10T20:07:43.381Z,8.54
2023-04-10T20:10:45.981Z,8.49
2023-04-10T20:13:48.387Z,8.48
2023-04-10T20:16:50.826Z,8.24
2023-04-10T20:19:53.208Z,8.18
2023-04-10T20:22:56.180Z,8.02
2023-04-10T20:25:58.585Z,7.83
2023-04-10T20:29:01.184Z,7.75
2023-04-10T20:32:04.316Z,7.57
2023-04-10T20:35:07.303Z,7.81
2023-04-10T20:38:09.651Z,7.91
2023-04-10T20:41:12.149Z,8.14
2023-04-10T20:44:14.999Z,8.26
2023-04-10T20:47:17.419Z,8.26
2023-04-10T20:50:19.862Z,8.24
2023-04-10T20:53:22.297Z,8.22
2023-04-10T20:56:32.902Z,8.09
2023-04-10T20:59:42.801Z,8.04
2023-04-10T21:02:45.580Z,7.91
2023-04-10T21:05:48.110Z,7.86
2023-04-10T21:08:50.680Z,7.62
2023-04-10T21:11:53.043Z,7.48
2023-04-10T21:14:55.636Z,7.36
2023-04-10T21:17:58.258Z,7.39
2023-04-10T21:21:00.824Z,7.40
2023-04-10T21:24:03.355Z,7.48
2023-04-10T21:27:07.553Z,7.28
2023-04-10T21:30:10.018Z,7.26
2023-04-10T21:33:12.360Z,7.07
2023-04-10T21:36:14.821Z,6.92
2023-04-10T21:39:17.313Z,6.93
2023-04-10T21:42:19.879Z,6.89
2023-04-10T21:45:22.278Z,7.01
2023-04-10T21:48:24.647Z,7.02
2023-04-10T21:51:28.438Z,7.13
2023-04-10T21:54:31.076Z,6.91
2023-04-10T21:57:33.771Z,7.05
2023-04-10T22:00:36.136Z,6.86
2023-04-10T22:03:38.768Z,6.93
2023-04-10T22:06:41.244Z,7.00
2023-04-10T22:09:43.651Z,7.05
2023-04-10T22:12:48.578Z,6.91
2023-04-10T22:15:51.321Z,7.02
2023-04-10T22:18:54.039Z,6.95
2023-04-10T22:21:56.989Z,6.71
2023-04-10T22:24:59.394Z,6.57
2023-04-10T22:28:01.708Z,6.52
2023-04-10T22:31:04.212Z,6.44
2023-04-10T22:34:06.551Z,6.32
2023-04-10T22:37:08.885Z,6.33
2023-04-10T22:40:11.311Z,6.25
2023-04-10T22:43:13.770Z,6.40
2023-04-10T22:46:16.292Z,6.18
2023-04-10T22:49:18.639Z,6.35
2023-04-10T22:52:21.071Z,6.57
2023-04-10T22:55:23.412Z,6.62
2023-04-10T22:58:25.814Z,6.56
2023-04-10T23:01:28.418Z,6.36
2023-04-10T23:04:31.090Z,6.38
2023-04-10T23:07:33.492Z,6.25
2023-04-10T23:10:35.886Z,6.21
2023-04-10T23:13:38.148Z,6.20
2023-04-10T23:16:40.551Z,6.32
2023-04-10T23:19:42.915Z,6.15
2023-04-10T23:22:45.393Z,5.88
2023-04-10T23:25:47.764Z,5.70
2023-04-10T23:28:50.150Z,5.23
2023-04-10T23:31:52.447Z,5.72
2023-04-10T23:34:54.723Z,5.71
2023-04-10T23:37:57.877Z,5.42
2023-04-10T23:41:00.282Z,5.23
2023-04-10T23:44:02.735Z,5.47
2023-04-10T23:47:06.349Z,5.51
2023-04-10T23:50:09.186Z,5.89
2023-04-10T23:53:13.357Z,5.74
2023-04-10T23:56:16.919Z,5.84
2023-04-10T23:59:19.373Z,5.71
